createdAt,value
2022-12-13T00:02:02.094Z,15.13
2022-12-13T00:05:04.412Z,14.05
2022-12-13T00:08:06.458Z,13.50
2022-12-13T00:11:12.004Z,12.55
2022-12-13T00:14:14.158Z,10.82
2022-12-13T00:17:17.831Z,14.15
2022-12-13T00:20:20.058Z,14.48
2022-12-13T00:23:21.983Z,21.40
2022-12-13T00:26:26.365Z,16.27
2022-12-13T00:29:28.516Z,18.88
2022-12-13T00:32:31.900Z,14.13
2022-12-13T00:35:34.403Z,14.40
2022-12-13T00:38:37.085Z,13.13
2022-12-13T00:41:39.126Z,16.25
2022-12-13T00:44:41.190Z,11.57
2022-12-13T00:47:45.798Z,13.55
2022-12-13T00:50:47.760Z,11.68
2022-12-13T00:53:50.141Z,11.43
2022-12-13T00:56:52.046Z,13.57
2022-12-13T00:59:53.964Z,11.77
2022-12-13T01:02:57.284Z,10.43
2022-12-13T01:06:16.259Z,10.98
2022-12-13T01:09:20.498Z,14.05
2022-12-13T01:12:22.488Z,17.33
2022-12-13T01:15:24.422Z,16.58
2022-12-13T01:18:27.724Z,21.83
2022-12-13T01:21:29.866Z,15.35
2022-12-13T01:24:32.512Z,12.52
2022-12-13T01:27:34.432Z,15.77
2022-12-13T01:30:36.636Z,19.83
2022-12-13T01:33:40.515Z,17.08
2022-12-13T01:36:44.405Z,19.38
2022-12-13T01:39:46.398Z,16.45
2022-12-13T01:42:48.342Z,13.02
2022-12-13T01:45:50.377Z,21.25
2022-12-13T01:49:01.660Z,14.93
2022-12-13T01:52:08.147Z,13.95
2022-12-13T01:55:12.110Z,12.68
2022-12-13T01:58:15.070Z,14.55
2022-12-13T02:01:18.028Z,16.85
2022-12-13T02:04:29.177Z,21.13
2022-12-13T02:07:33.974Z,19.35
2022-12-13T02:10:36.311Z,17.70
2022-12-13T02:13:40.861Z,17.40
2022-12-13T02:16:53.476Z,18.20
2022-12-13T02:20:30.827Z,16.85
2022-12-13T02:24:12.427Z,20.10
2022-12-13T02:27:31.164Z,18.02
2022-12-13T02:30:39.606Z,19.13
2022-12-13T02:33:52.921Z,10.60
2022-12-13T02:37:01.927Z,19.20
2022-12-13T02:40:08.980Z,17.45
2022-12-13T02:43:16.796Z,24.25
2022-12-13T02:46:29.155Z,24.02
2022-12-13T02:49:35.044Z,30.75
2022-12-13T02:52:39.464Z,24.95
2022-12-13T02:55:41.407Z,34.85
2022-12-13T02:58:47.581Z,29.27
2022-12-13T03:02:10.496Z,48.13
2022-12-13T03:05:24.018Z,53.67
2022-12-13T03:08:31.526Z,45.38
2022-12-13T03:11:45.251Z,42.90
2022-12-13T03:14:56.542Z,38.08
2022-12-13T03:18:03.845Z,41.10
2022-12-13T03:21:07.884Z,35.45
2022-12-13T03:24:09.975Z,36.13
2022-12-13T03:27:12.422Z,32.40
2022-12-13T03:30:14.412Z,26.85
2022-12-13T03:33:17.786Z,29.17
2022-12-13T03:36:20.116Z,24.10
2022-12-13T03:39:24.111Z,30.73
2022-12-13T03:42:26.239Z,26.63
2022-12-13T03:45:28.616Z,18.20
2022-12-13T03:48:31.993Z,22.85
2022-12-13T03:51:33.978Z,18.05
2022-12-13T03:54:36.493Z,15.18
2022-12-13T03:57:38.461Z,15.68
2022-12-13T04:00:40.496Z,14.75
2022-12-13T04:03:45.845Z,13.48
2022-12-13T04:06:47.844Z,12.93
2022-12-13T04:09:49.813Z,13.73
2022-12-13T04:12:52.007Z,14.00
2022-12-13T04:15:54.038Z,15.20
2022-12-13T04:18:57.352Z,15.02
2022-12-13T04:21:59.361Z,10.93
2022-12-13T04:25:01.361Z,10.23
2022-12-13T04:28:03.392Z,11.70
2022-12-13T04:31:05.670Z,10.13
2022-12-13T04:34:09.105Z,11.35
2022-12-13T04:37:11.063Z,11.25
2022-12-13T04:40:12.994Z,11.32
2022-12-13T04:43:23.820Z,13.82
2022-12-13T04:46:25.769Z,13.50
2022-12-13T04:49:29.165Z,12.75
2022-12-13T04:52:31.492Z,19.50
2022-12-13T04:55:33.466Z,19.65
2022-12-13T04:58:35.558Z,21.63
2022-12-13T05:01:37.708Z,21.55
2022-12-13T05:04:41.036Z,22.65
2022-12-13T05:07:43.180Z,22.08
2022-12-13T05:10:45.293Z,19.40
2022-12-13T05:13:47.573Z,23.48
2022-12-13T05:16:49.584Z,23.20
2022-12-13T05:19:52.923Z,30.65
2022-12-13T05:22:56.095Z,31.50
2022-12-13T05:25:58.086Z,26.65
2022-12-13T05:29:00.327Z,28.58
2022-12-13T05:32:02.916Z,29.80
2022-12-13T05:35:07.405Z,27.17
2022-12-13T05:38:09.359Z,27.83
2022-12-13T05:41:16.334Z,22.27
2022-12-13T05:44:18.295Z,22.55
2022-12-13T05:47:20.281Z,23.70
2022-12-13T05:50:24.100Z,23.98
2022-12-13T05:53:30.551Z,23.63
2022-12-13T05:56:34.969Z,22.38
2022-12-13T05:59:36.872Z,26.63
2022-12-13T06:02:39.551Z,21.92
2022-12-13T06:05:43.420Z,24.38
2022-12-13T06:08:45.336Z,18.73
2022-12-13T06:11:47.649Z,21.08
2022-12-13T06:14:49.517Z,20.60
2022-12-13T06:17:51.471Z,23.23
2022-12-13T06:20:58.504Z,22.52
2022-12-13T06:24:01.943Z,21.00
2022-12-13T06:27:04.159Z,21.92
2022-12-13T06:30:06.862Z,23.35
2022-12-13T06:33:09.049Z,22.08
2022-12-13T06:36:16.638Z,20.63
2022-12-13T06:39:19.092Z,23.17
2022-12-13T06:42:21.761Z,23.70
2022-12-13T06:45:25.122Z,20.15
2022-12-13T06:48:27.126Z,23.30
2022-12-13T06:51:32.690Z,20.60
2022-12-13T06:54:35.280Z,19.23
2022-12-13T06:57:37.224Z,15.75
2022-12-13T07:00:48.324Z,16.92
2022-12-13T07:03:51.416Z,16.98
2022-12-13T07:06:54.763Z,15.02
2022-12-13T07:09:56.894Z,15.18
2022-12-13T07:12:58.882Z,15.55
2022-12-13T07:16:01.352Z,16.88
2022-12-13T07:19:03.629Z,16.40
2022-12-13T07:22:06.988Z,15.35
2022-12-13T07:25:28.053Z,17.48
2022-12-13T07:28:33.313Z,17.83
2022-12-13T07:31:35.793Z,15.32
2022-12-13T07:34:37.924Z,16.38
2022-12-13T07:37:41.252Z,14.95
2022-12-13T07:40:43.304Z,13.18
2022-12-13T07:43:45.369Z,16.73
2022-12-13T07:46:48.768Z,14.20
2022-12-13T07:49:50.767Z,15.65
2022-12-13T07:52:54.531Z,15.02
2022-12-13T07:55:56.428Z,15.77
2022-12-13T07:58:58.382Z,19.02
2022-12-13T08:02:01.771Z,17.88
2022-12-13T08:05:25.900Z,16.95
2022-12-13T08:08:31.327Z,18.58
2022-12-13T08:11:34.005Z,20.80
2022-12-13T08:14:35.920Z,23.25
2022-12-13T08:17:37.913Z,18.33
2022-12-13T08:20:39.782Z,16.42
2022-12-13T08:23:43.120Z,15.30
2022-12-13T08:26:45.445Z,21.25
2022-12-13T08:29:47.476Z,17.52
2022-12-13T08:32:50.408Z,18.75
2022-12-13T08:35:52.319Z,18.40
2022-12-13T08:38:57.166Z,16.27
2022-12-13T08:41:59.088Z,16.90
2022-12-13T08:45:17.525Z,19.13
2022-12-13T08:48:19.901Z,16.70
2022-12-13T08:51:25.711Z,18.92
2022-12-13T08:54:33.059Z,16.70
2022-12-13T08:57:35.832Z,12.23
2022-12-13T09:00:38.339Z,12.88
2022-12-13T09:03:40.586Z,10.00
2022-12-13T09:06:43.201Z,11.05
2022-12-13T09:09:46.470Z,7.28
2022-12-13T09:13:01.507Z,10.25
2022-12-13T09:16:05.518Z,8.05
2022-12-13T09:19:26.250Z,9.18
2022-12-13T09:22:33.527Z,8.98
2022-12-13T09:25:37.838Z,9.43
2022-12-13T09:28:41.104Z,10.80
2022-12-13T09:31:47.078Z,8.20
2022-12-13T09:34:53.012Z,8.50
2022-12-13T09:37:55.676Z,10.43
2022-12-13T09:41:03.106Z,8.43
2022-12-13T09:44:32.187Z,12.10
2022-12-13T09:47:39.179Z,12.50
2022-12-13T09:50:58.308Z,11.95
2022-12-13T09:54:18.296Z,12.63
2022-12-13T09:57:32.333Z,12.70
2022-12-13T10:00:36.732Z,13.57
2022-12-13T10:03:41.575Z,13.65
2022-12-13T10:06:43.555Z,12.13
2022-12-13T10:09:46.370Z,11.88
2022-12-13T10:12:55.153Z,11.00
2022-12-13T10:19:29.251Z,18.17
2022-12-13T10:22:32.056Z,12.05
2022-12-13T10:25:47.298Z,13.93
2022-12-13T10:29:04.392Z,13.52
2022-12-13T10:32:12.545Z,13.23
2022-12-13T10:35:24.649Z,11.68
2022-12-13T10:38:32.026Z,12.50
2022-12-13T10:41:36.471Z,13.55
2022-12-13T10:44:39.751Z,12.60
2022-12-13T10:47:43.094Z,13.40
2022-12-13T10:50:56.994Z,15.18
2022-12-13T10:54:00.806Z,13.18
2022-12-13T10:57:02.928Z,12.85
2022-12-13T11:00:31.041Z,13.43
2022-12-13T11:03:34.830Z,14.20
2022-12-13T11:06:43.576Z,12.13
2022-12-13T11:09:45.734Z,14.13
2022-12-13T11:13:00.680Z,13.70
2022-12-13T11:16:05.356Z,12.27
2022-12-13T11:19:16.927Z,12.75
2022-12-13T11:22:21.743Z,12.82
2022-12-13T11:25:27.106Z,13.05
2022-12-13T11:28:55.885Z,14.63
2022-12-13T11:32:08.489Z,14.63
2022-12-13T11:35:17.542Z,12.57
2022-12-13T11:38:28.366Z,15.00
2022-12-13T11:41:35.131Z,13.88
2022-12-13T11:44:47.857Z,13.60
2022-12-13T11:47:59.779Z,14.30
2022-12-13T11:51:02.344Z,13.40
2022-12-13T11:54:11.038Z,13.90
2022-12-13T12:00:35.055Z,13.50
2022-12-13T12:03:44.045Z,15.65
2022-12-13T12:06:51.169Z,15.27
2022-12-13T12:09:57.477Z,13.10
2022-12-13T12:13:07.540Z,12.98
2022-12-13T12:16:18.743Z,13.80
2022-12-13T12:19:24.645Z,15.15
2022-12-13T12:22:39.883Z,13.82
2022-12-13T12:25:51.544Z,13.07
2022-12-13T12:29:12.160Z,14.02
2022-12-13T12:32:26.147Z,15.68
2022-12-13T12:35:45.894Z,15.63
2022-12-13T12:39:26.353Z,14.50
2022-12-13T12:43:13.914Z,16.90
2022-12-13T12:46:27.287Z,13.82
2022-12-13T12:50:19.826Z,15.55
2022-12-13T12:53:33.462Z,14.45
2022-12-13T12:56:42.307Z,13.45
2022-12-13T13:03:01.806Z,15.18
2022-12-13T13:06:09.580Z,15.63
2022-12-13T13:09:17.398Z,12.70
2022-12-13T13:12:29.605Z,13.93
2022-12-13T13:15:54.269Z,13.75
2022-12-13T13:18:57.209Z,15.70
2022-12-13T13:22:01.601Z,25.35
2022-12-13T13:25:31.505Z,17.67
2022-12-13T13:28:33.712Z,14.10
2022-12-13T13:32:00.932Z,13.35
2022-12-13T13:35:49.301Z,13.98
2022-12-13T13:38:52.755Z,15.10
2022-12-13T13:42:08.028Z,15.98
2022-12-13T13:45:21.274Z,15.77
2022-12-13T13:48:37.347Z,15.48
2022-12-13T13:55:48.791Z,21.70
2022-12-13T13:59:29.610Z,20.05
2022-12-13T14:03:32.877Z,15.32
2022-12-13T14:07:15.555Z,17.30
2022-12-13T14:10:28.600Z,22.08
2022-12-13T14:14:21.635Z,15.75
2022-12-13T14:18:01.926Z,16.20
2022-12-13T14:21:13.101Z,16.80
2022-12-13T14:24:22.331Z,20.17
2022-12-13T14:27:39.352Z,16.67
2022-12-13T14:30:48.283Z,18.52
2022-12-13T14:34:01.520Z,18.83
2022-12-13T14:37:06.291Z,16.52
2022-12-13T14:40:26.083Z,29.98
2022-12-13T14:43:30.298Z,18.80
2022-12-13T14:46:32.669Z,18.25
2022-12-13T14:49:39.041Z,17.80
2022-12-13T14:52:43.562Z,16.27
2022-12-13T14:56:03.693Z,20.10
2022-12-13T14:59:13.309Z,17.13
2022-12-13T15:02:17.414Z,17.85
2022-12-13T15:05:35.532Z,61.22
2022-12-13T15:08:38.809Z,14.98
2022-12-13T15:11:41.795Z,20.20
2022-12-13T15:14:48.220Z,21.65
2022-12-13T15:18:05.760Z,19.23
2022-12-13T15:21:21.185Z,19.25
2022-12-13T15:24:28.232Z,18.50
2022-12-13T15:27:30.497Z,18.27
2022-12-13T15:30:35.483Z,20.58
2022-12-13T15:33:44.083Z,17.83
2022-12-13T15:36:51.183Z,17.38
2022-12-13T15:39:57.521Z,19.27
2022-12-13T15:42:59.555Z,19.10
2022-12-13T15:46:02.111Z,19.75
2022-12-13T15:49:06.201Z,19.90
2022-12-13T15:52:25.504Z,16.45
2022-12-13T15:55:33.694Z,21.45
2022-12-13T15:58:37.326Z,21.13
2022-12-13T16:01:39.338Z,16.75
2022-12-13T16:04:41.411Z,17.98
2022-12-13T16:07:43.533Z,16.50
2022-12-13T16:10:48.562Z,17.98
2022-12-13T16:13:50.481Z,18.10
2022-12-13T16:17:08.533Z,17.60
2022-12-13T16:20:14.157Z,22.00
2022-12-13T16:23:26.837Z,19.02
2022-12-13T16:26:30.962Z,16.70
2022-12-13T16:29:33.314Z,19.45
2022-12-13T16:32:49.609Z,22.50
2022-12-13T16:35:57.268Z,19.90
2022-12-13T16:38:59.160Z,21.45
2022-12-13T16:42:03.128Z,19.63
2022-12-13T16:45:40.102Z,21.35
2022-12-13T16:48:28.859Z,18.48
2022-12-13T16:51:31.229Z,17.40
2022-12-13T16:54:33.592Z,22.75
2022-12-13T16:57:37.807Z,21.10
2022-12-13T17:00:41.141Z,18.20
2022-12-13T17:03:43.404Z,23.02
2022-12-13T17:06:46.470Z,21.23
2022-12-13T17:09:48.710Z,21.95
2022-12-13T17:12:53.478Z,20.33
2022-12-13T17:15:58.971Z,23.85
2022-12-13T17:19:02.183Z,23.92
2022-12-13T17:22:04.463Z,25.58
2022-12-13T17:25:08.035Z,22.02
2022-12-13T17:28:13.183Z,20.98
2022-12-13T17:31:16.936Z,23.95
2022-12-13T17:34:19.829Z,19.45
2022-12-13T17:37:23.014Z,18.95
2022-12-13T17:40:25.791Z,20.85
2022-12-13T17:43:34.363Z,22.33
2022-12-13T17:46:37.967Z,24.67
2022-12-13T17:49:40.627Z,21.17
2022-12-13T17:52:42.885Z,22.63
2022-12-13T17:55:45.161Z,23.92
2022-12-13T17:58:48.621Z,21.17
2022-12-13T18:01:51.623Z,20.77
2022-12-13T18:04:54.099Z,21.45
2022-12-13T18:07:56.537Z,19.80
2022-12-13T18:11:30.778Z,21.52
2022-12-13T18:14:23.169Z,21.08
2022-12-13T18:17:46.759Z,24.27
2022-12-13T18:20:49.253Z,22.02
2022-12-13T18:23:54.972Z,22.08
2022-12-13T18:26:59.109Z,24.92
2022-12-13T18:30:03.260Z,20.98
2022-12-13T18:33:08.645Z,21.70
2022-12-13T18:36:11.579Z,21.23
2022-12-13T18:39:15.385Z,24.40
2022-12-13T18:42:18.744Z,24.50
2022-12-13T18:45:23.663Z,21.67
2022-12-13T18:48:32.705Z,21.35
2022-12-13T18:51:36.854Z,19.30
2022-12-13T18:54:39.966Z,25.23
2022-12-13T18:57:42.733Z,26.00
2022-12-13T19:00:46.668Z,27.30
2022-12-13T19:03:50.595Z,27.55
2022-12-13T19:07:01.123Z,27.60
2022-12-13T19:10:03.792Z,24.50
2022-12-13T19:13:06.267Z,25.15
2022-12-13T19:16:12.906Z,25.52
2022-12-13T19:19:15.771Z,27.73
2022-12-13T19:22:18.528Z,26.77
2022-12-13T19:25:21.730Z,25.90
2022-12-13T19:28:24.420Z,25.08
2022-12-13T19:31:32.685Z,29.33
2022-12-13T19:34:36.777Z,26.73
2022-12-13T19:37:40.498Z,28.33
2022-12-13T19:40:43.866Z,26.92
2022-12-13T19:43:52.451Z,28.92
2022-12-13T19:46:57.943Z,29.00
2022-12-13T19:50:01.450Z,28.83
2022-12-13T19:53:05.345Z,30.48
2022-12-13T19:56:10.328Z,28.35
2022-12-13T19:59:14.217Z,28.98
2022-12-13T20:02:20.741Z,29.27
2022-12-13T20:05:27.182Z,29.35
2022-12-13T20:08:31.372Z,27.30
2022-12-13T20:11:34.325Z,26.63
2022-12-13T20:14:37.572Z,28.20
2022-12-13T20:17:42.762Z,27.80
2022-12-13T20:21:10.543Z,24.92
2022-12-13T20:24:12.501Z,27.38
2022-12-13T20:27:15.120Z,28.95
2022-12-13T20:30:19.086Z,29.67
2022-12-13T20:33:23.919Z,32.88
2022-12-13T20:36:28.437Z,30.15
2022-12-13T20:39:32.778Z,30.67
2022-12-13T20:42:35.717Z,25.17
2022-12-13T20:45:38.992Z,27.25
2022-12-13T20:48:45.845Z,30.38
2022-12-13T20:51:52.031Z,25.75
2022-12-13T20:54:55.087Z,26.65
2022-12-13T20:57:57.610Z,29.20
2022-12-13T21:01:02.764Z,27.55
2022-12-13T21:04:09.053Z,27.13
2022-12-13T21:07:11.260Z,29.58
2022-12-13T21:10:15.774Z,31.63
2022-12-13T21:13:18.112Z,26.00
2022-12-13T21:16:21.565Z,30.13
2022-12-13T21:19:26.791Z,28.67
2022-12-13T21:22:28.693Z,26.55
2022-12-13T21:25:30.995Z,28.30
2022-12-13T21:28:33.171Z,25.33
2022-12-13T21:31:36.622Z,23.45
2022-12-13T21:34:40.276Z,25.58
2022-12-13T21:37:42.303Z,30.02
2022-12-13T21:40:50.621Z,29.50
2022-12-13T21:43:52.830Z,25.92
2022-12-13T21:50:18.103Z,30.63
2022-12-13T21:53:19.987Z,29.42
2022-12-13T21:56:24.092Z,31.23
2022-12-13T21:59:27.742Z,28.25
2022-12-13T22:02:29.644Z,29.52
2022-12-13T22:05:33.193Z,33.83
2022-12-13T22:08:35.076Z,26.48
2022-12-13T22:11:37.158Z,27.83
2022-12-13T22:14:39.044Z,27.20
2022-12-13T22:17:41.539Z,31.77
2022-12-13T22:20:44.859Z,30.00
2022-12-13T22:23:47.089Z,30.60
2022-12-13T22:26:48.957Z,29.08
2022-12-13T22:29:51.412Z,31.20
2022-12-13T22:32:53.356Z,31.42
2022-12-13T22:35:56.575Z,28.15
2022-12-13T22:38:58.484Z,29.83
2022-12-13T22:42:00.376Z,30.63
2022-12-13T22:45:02.456Z,29.40
2022-12-13T22:48:04.916Z,30.38
2022-12-13T22:51:10.339Z,31.08
2022-12-13T22:54:12.177Z,29.05
2022-12-13T22:57:14.175Z,30.33
2022-12-13T23:00:16.448Z,31.33
2022-12-13T23:03:18.369Z,32.40
2022-12-13T23:06:23.728Z,28.98
2022-12-13T23:09:25.617Z,30.10
2022-12-13T23:12:27.656Z,30.75
2022-12-13T23:15:30.031Z,28.85
2022-12-13T23:18:31.910Z,27.83
2022-12-13T23:21:35.160Z,38.03
2022-12-13T23:24:37.123Z,34.85
2022-12-13T23:27:38.991Z,34.10
2022-12-13T23:30:40.895Z,34.22
2022-12-13T23:33:43.070Z,32.58
2022-12-13T23:36:46.374Z,30.30
2022-12-13T23:39:48.315Z,34.10
2022-12-13T23:42:50.229Z,28.58
2022-12-13T23:45:52.266Z,29.80
2022-12-13T23:48:54.121Z,30.80
2022-12-13T23:51:57.414Z,31.52
2022-12-13T23:54:59.263Z,29.77
2022-12-13T23:58:01.143Z,35.95
